createdAt,value
2024-01-17T08:04:43.465Z,6.52
2024-01-17T08:07:10.119Z,7.47
2024-01-17T08:09:36.688Z,8.09
2024-01-17T08:12:03.310Z,8.86
2024-01-17T08:14:30.004Z,9.32
2024-01-17T08:16:56.560Z,9.83
2024-01-17T08:19:23.399Z,9.86
2024-01-17T08:21:50.236Z,10.07
2024-01-17T08:24:16.921Z,10.20
2024-01-17T08:26:43.615Z,10.40
2024-01-17T08:29:10.218Z,10.73
2024-01-17T08:31:36.873Z,10.95
2024-01-17T08:34:03.714Z,11.02
2024-01-17T08:36:30.482Z,10.91
2024-01-17T08:38:57.140Z,10.80
2024-01-17T08:41:23.761Z,10.76
2024-01-17T08:43:50.366Z,10.29
2024-01-17T08:46:17.007Z,9.39
2024-01-17T08:48:43.785Z,9.44
2024-01-17T08:51:10.552Z,9.08
2024-01-17T08:53:37.198Z,8.45
2024-01-17T08:56:03.850Z,8.85
2024-01-17T08:58:30.487Z,9.13
2024-01-17T09:00:57.063Z,8.33
2024-01-17T09:03:23.816Z,9.05
2024-01-17T09:05:50.579Z,9.38
2024-01-17T09:08:17.423Z,9.67
2024-01-17T09:10:44.149Z,8.91
2024-01-17T09:13:10.827Z,8.93
2024-01-17T09:15:37.374Z,9.56
2024-01-17T09:18:04.142Z,9.90
2024-01-17T09:20:30.804Z,9.70
2024-01-17T09:23:00.453Z,9.18
2024-01-17T09:25:27.009Z,8.78
2024-01-17T09:27:53.646Z,8.58
2024-01-17T09:30:20.295Z,8.84
2024-01-17T09:32:46.972Z,9.48
2024-01-17T09:35:13.604Z,9.55
2024-01-17T09:37:40.183Z,9.36
2024-01-17T09:40:06.785Z,9.56
2024-01-17T09:42:33.380Z,10.08
2024-01-17T09:45:00.111Z,10.39
2024-01-17T09:47:26.816Z,10.41
2024-01-17T09:49:53.396Z,10.33
2024-01-17T09:52:19.984Z,10.83
2024-01-17T09:54:46.578Z,11.09
2024-01-17T09:57:13.312Z,10.73
2024-01-17T09:59:40.023Z,10.26
2024-01-17T10:02:06.641Z,9.48
2024-01-17T10:04:33.242Z,9.38
2024-01-17T10:06:59.996Z,9.99
2024-01-17T10:09:26.669Z,9.92
2024-01-17T10:11:55.029Z,9.90
2024-01-17T10:14:22.084Z,9.39
2024-01-17T10:16:48.678Z,9.78
2024-01-17T10:19:15.533Z,9.47
2024-01-17T10:21:42.202Z,9.92
2024-01-17T10:24:08.813Z,9.99
2024-01-17T10:26:35.422Z,10.38
2024-01-17T10:29:02.082Z,9.73
2024-01-17T10:31:28.662Z,9.32
2024-01-17T10:33:55.441Z,10.02
2024-01-17T10:36:22.224Z,9.57
2024-01-17T10:38:48.907Z,9.69
2024-01-17T10:41:15.560Z,9.51
2024-01-17T10:43:42.185Z,9.88
2024-01-17T10:46:08.745Z,10.43
